Terminal Aerodrome Forecast
Issued by NWS

Current Version | Previous Version | Graphics & Text | Print | Product List | Glossary On
Versions: 1 2 3 4 5 6 7 8 9 10 11 12 13 14 15 16 17 18 19 20 21 22 23 24 25 26
000
FTUS41 KPBZ 281938 AAA
TAFMGW
TAF AMD
KMGW 281938Z 2820/2918 07005KT 5SM -TSRA BKN025CB
     FM282015 VRB05KT P6SM BKN035
     FM290000 08007KT P6SM BKN015 OVC025
     FM290800 VRB04KT P6SM OVC008
     FM291500 VRB03KT P6SM OVC015=

USA.gov is the U.S. government's official web portal to all federal, state and local government web resources and services.